Time;durP1;ratioP1;P1;durP2;ratioP2;P2;SDS_P1;SDS_P2;PMS_P1;PMS_P2;Temp;Humidity;BMP_temperature;BMP_pressure;BME280_temperature;BME280_humidity;BME280_pressure;Samples;Min_cycle;Max_cycle;Signal;HPM_P1;HPM_P2
2022/08/03 00:01:42;;;;;;;0.40;0.20;;;18.90;99.90;;;;;;5052915;28;19916;-76
2022/08/03 00:04:09;;;;;;;0.63;0.22;;;18.90;99.90;;;;;;5087896;28;20040;-76
2022/08/03 00:06:35;;;;;;;0.10;0.10;;;19.00;99.90;;;;;;5078294;28;20045;-76
2022/08/03 00:09:03;;;;;;;0.20;0.10;;;18.90;99.90;;;;;;5052790;28;20465;-76
2022/08/03 00:11:29;;;;;;;0.30;0.20;;;19.00;99.90;;;;;;5075251;28;20037;-76
2022/08/03 00:13:54;;;;;;;;;;;18.90;99.90;;;;;;5064845;28;20050;-76
2022/08/03 00:16:20;;;;;;;0.90;0.30;;;18.90;99.90;;;;;;5069243;28;19928;-76
2022/08/03 00:18:45;;;;;;;;;;;18.80;99.90;;;;;;5079767;28;20123;-76
2022/08/03 00:21:11;;;;;;;0.30;0.20;;;18.90;99.90;;;;;;5071308;28;19917;-76
2022/08/03 00:23:37;;;;;;;;;;;18.90;99.90;;;;;;5078424;28;20044;-76
2022/08/03 00:26:03;;;;;;;0.38;0.20;;;18.70;99.90;;;;;;5058730;28;19920;-76
2022/08/03 00:28:29;;;;;;;;;;;18.70;99.90;;;;;;5079762;28;20507;-76
2022/08/03 00:30:55;;;;;;;0.30;0.30;;;18.70;99.90;;;;;;5063025;28;19923;-76
2022/08/03 00:33:21;;;;;;;0.73;0.30;;;18.70;99.90;;;;;;5053394;28;20040;-76
2022/08/03 00:35:47;;;;;;;;;;;18.60;99.90;;;;;;5062839;28;20052;-76
2022/08/03 00:38:13;;;;;;;0.30;0.10;;;18.70;99.90;;;;;;5075024;28;19915;-76
2022/08/03 00:40:39;;;;;;;;;;;18.80;99.90;;;;;;5074798;28;20072;-76
2022/08/03 00:43:07;;;;;;;0.43;0.20;;;18.60;99.90;;;;;;5069243;28;19920;-76
2022/08/03 00:45:38;;;;;;;0.38;0.30;;;18.70;99.90;;;;;;5073247;28;20415;-77
2022/08/03 00:48:06;;;;;;;1.40;0.35;;;18.70;99.90;;;;;;5075559;28;20040;-76
2022/08/03 00:50:39;;;;;;;0.30;0.30;;;18.60;99.90;;;;;;5068734;28;20099;-76
2022/08/03 00:53:06;;;;;;;0.52;0.20;;;18.50;99.90;;;;;;5071270;28;20140;-76
2022/08/03 00:55:34;;;;;;;0.32;0.10;;;18.70;99.90;;;;;;5085630;28;20509;-76
2022/08/03 00:58:05;;;;;;;0.30;0.20;;;18.60;99.90;;;;;;5071185;28;20141;-76
2022/08/03 01:00:32;;;;;;;0.20;0.13;;;18.60;99.90;;;;;;5079649;28;20083;-76
2022/08/03 01:02:58;;;;;;;1.33;0.28;;;18.70;99.90;;;;;;5076849;28;20076;-76
2022/08/03 01:05:24;;;;;;;;;;;18.50;99.90;;;;;;5073062;28;20099;-76
2022/08/03 01:08:10;;;;;;;0.75;0.25;;;18.50;99.90;;;;;;5075627;28;19916;-76
2022/08/03 01:10:51;;;;;;;0.35;0.25;;;18.40;99.90;;;;;;5083901;28;20570;-76
2022/08/03 01:13:21;;;;;;;0.88;0.30;;;18.60;99.90;;;;;;5065310;28;20052;-76
2022/08/03 01:16:28;;;;;;;0.13;0.10;;;18.60;99.90;;;;;;5077069;28;20089;-76
2022/08/03 01:18:57;;;;;;;1.65;0.40;;;18.60;99.90;;;;;;5026146;28;20480;-76
2022/08/03 01:21:31;;;;;;;1.02;0.30;;;18.50;99.90;;;;;;5018207;28;20120;-76
2022/08/03 01:24:26;;;;;;;0.50;0.10;;;18.50;99.90;;;;;;5059856;28;20032;-76
2022/08/03 01:27:02;;;;;;;0.45;0.30;;;18.30;99.90;;;;;;5057832;28;20040;-76
2022/08/03 01:29:31;;;;;;;;;;;18.40;99.90;;;;;;5073945;28;20416;-76
2022/08/03 01:32:04;;;;;;;0.40;0.20;;;18.30;99.90;;;;;;5072220;28;19958;-76
2022/08/03 01:34:35;;;;;;;0.20;0.20;;;18.50;99.90;;;;;;5075454;28;20131;-76
2022/08/03 01:37:04;;;;;;;0.35;0.30;;;18.30;99.90;;;;;;5078388;28;20058;-77
2022/08/03 01:39:31;;;;;;;1.27;0.32;;;18.20;99.90;;;;;;5084014;28;20040;-76
2022/08/03 01:42:06;;;;;;;0.45;0.30;;;18.40;99.90;;;;;;5074709;28;20044;-76
2022/08/03 01:44:37;;;;;;;0.43;0.30;;;18.20;99.90;;;;;;5080325;28;20083;-76
2022/08/03 01:47:05;;;;;;;0.30;0.28;;;18.40;99.90;;;;;;5071829;28;20040;-76
2022/08/03 01:49:35;;;;;;;0.10;0.10;;;18.20;99.90;;;;;;5062784;28;20047;-76
2022/08/03 01:52:03;;;;;;;0.60;0.08;;;18.20;99.90;;;;;;5071370;28;20416;-76
2022/08/03 01:54:29;;;;;;;0.75;0.25;;;18.20;99.90;;;;;;5071710;28;20056;-76
2022/08/03 01:56:57;;;;;;;0.13;0.10;;;18.30;99.90;;;;;;5083788;28;20136;-76
2022/08/03 01:59:25;;;;;;;0.10;0.10;;;18.30;99.90;;;;;;5078853;28;20055;-76
2022/08/03 02:01:52;;;;;;;0.80;0.10;;;18.30;99.90;;;;;;5074758;28;20119;-76
2022/08/03 02:04:19;;;;;;;0.00;0.00;;;18.30;99.90;;;;;;5076063;28;20064;-76
2022/08/03 02:06:47;;;;;;;0.22;0.10;;;18.10;99.90;;;;;;5070509;28;20045;-76
2022/08/03 02:09:14;;;;;;;0.30;0.10;;;18.20;99.90;;;;;;5081653;28;20055;-76
2022/08/03 02:11:41;;;;;;;0.85;0.20;;;18.20;99.90;;;;;;5070776;28;20510;-76
2022/08/03 02:14:08;;;;;;;0.20;0.20;;;18.00;99.90;;;;;;5054200;28;20044;-76
2022/08/03 02:16:35;;;;;;;0.45;0.32;;;18.00;99.90;;;;;;5078975;28;20079;-76
2022/08/03 02:19:05;;;;;;;0.30;0.10;;;18.20;99.90;;;;;;5077548;28;20060;-76
2022/08/03 02:21:34;;;;;;;0.10;0.10;;;18.00;99.90;;;;;;5077065;28;20029;-76
2022/08/03 02:24:00;;;;;;;0.10;0.10;;;18.20;99.90;;;;;;5077745;28;20048;-76
2022/08/03 02:26:28;;;;;;;;;;;18.10;99.90;;;;;;5063071;28;20484;-76
2022/08/03 02:28:56;;;;;;;0.17;0.10;;;18.10;99.90;;;;;;5074895;28;20311;-76
2022/08/03 02:31:26;;;;;;;0.20;0.10;;;18.00;99.90;;;;;;5056886;28;20036;-76
2022/08/03 02:33:57;;;;;;;0.15;0.15;;;18.00;99.90;;;;;;5085472;28;20138;-76
2022/08/03 02:36:27;;;;;;;0.30;0.20;;;18.10;99.90;;;;;;5091193;28;20080;-76
2022/08/03 02:38:55;;;;;;;0.35;0.10;;;18.30;99.90;;;;;;5075099;28;20048;-76
2022/08/03 02:41:34;;;;;;;0.32;0.22;;;18.10;99.90;;;;;;5054494;28;20372;-76
2022/08/03 02:44:06;;;;;;;0.65;0.20;;;18.20;99.90;;;;;;5080488;28;20076;-76
2022/08/03 02:46:36;;;;;;;0.75;0.20;;;18.20;99.90;;;;;;5072833;28;20052;-76
2022/08/03 02:49:03;;;;;;;0.10;0.10;;;18.10;99.90;;;;;;5071184;28;20032;-76
2022/08/03 02:51:31;;;;;;;0.70;0.30;;;18.10;99.90;;;;;;5059029;28;20048;-76
2022/08/03 02:54:00;;;;;;;0.25;0.13;;;18.20;99.90;;;;;;5076359;28;20073;-77
2022/08/03 02:56:27;;;;;;;0.10;0.10;;;18.20;99.90;;;;;;5074528;28;20041;-76
2022/08/03 02:58:55;;;;;;;0.52;0.20;;;18.20;99.90;;;;;;5072146;28;20089;-76
2022/08/03 03:01:25;;;;;;;0.10;0.10;;;18.00;99.90;;;;;;5071957;28;20047;-76
2022/08/03 03:03:53;;;;;;;0.47;0.20;;;18.10;99.90;;;;;;5068646;28;20060;-76
2022/08/03 03:06:21;;;;;;;0.50;0.20;;;18.00;99.90;;;;;;5062061;28;20381;-76
2022/08/03 03:08:47;;;;;;;0.10;0.08;;;18.00;99.90;;;;;;5071634;28;20065;-77
2022/08/03 03:11:15;;;;;;;1.15;0.28;;;18.10;99.90;;;;;;5070798;28;20044;-76
2022/08/03 03:13:43;;;;;;;0.25;0.10;;;18.10;99.90;;;;;;5082287;28;20127;-76
2022/08/03 03:16:12;;;;;;;0.45;0.20;;;17.90;99.90;;;;;;5077368;28;20115;-76
2022/08/03 03:18:39;;;;;;;0.10;0.10;;;18.00;99.90;;;;;;5069940;28;20503;-76
2022/08/03 03:21:07;;;;;;;0.35;0.20;;;18.10;99.90;;;;;;5073223;28;20083;-77
2022/08/03 03:23:37;;;;;;;0.50;0.20;;;17.90;99.90;;;;;;5087485;28;20040;-76
2022/08/03 03:26:03;;;;;;;0.73;0.10;;;18.10;99.90;;;;;;5083675;28;20049;-76
2022/08/03 03:28:30;;;;;;;0.20;0.10;;;17.90;99.90;;;;;;5072759;28;20089;-76
2022/08/03 03:30:56;;;;;;;0.25;0.20;;;17.90;99.90;;;;;;5059270;28;20069;-76
2022/08/03 03:33:22;;;;;;;;;;;18.00;99.90;;;;;;5071118;28;20036;-76
2022/08/03 03:35:48;;;;;;;0.45;0.20;;;18.10;99.90;;;;;;5089986;28;19942;-76
2022/08/03 03:38:14;;;;;;;0.60;0.30;;;18.10;99.90;;;;;;5076758;28;20048;-76
2022/08/03 03:40:40;;;;;;;;;;;18.10;99.90;;;;;;5076934;28;20033;-76
2022/08/03 03:43:10;;;;;;;0.15;0.10;;;17.90;99.90;;;;;;5080753;28;19920;-76
2022/08/03 03:45:36;;;;;;;1.05;0.30;;;18.00;99.90;;;;;;5072628;28;20040;-76
2022/08/03 03:48:06;;;;;;;0.32;0.20;;;17.80;99.90;;;;;;5080077;28;20491;-76
2022/08/03 03:50:34;;;;;;;0.35;0.20;;;18.00;99.90;;;;;;5071798;28;20044;-76
2022/08/03 03:53:00;;;;;;;0.57;0.30;;;18.00;99.90;;;;;;5066848;28;20044;-76
2022/08/03 03:55:26;;;;;;;0.10;0.10;;;17.70;99.90;;;;;;5084878;28;20036;-76
2022/08/03 03:57:52;;;;;;;1.10;0.40;;;17.90;99.90;;;;;;5063760;28;20037;-76
2022/08/03 04:00:18;;;;;;;0.50;0.20;;;17.90;99.90;;;;;;5072196;28;20128;-77
2022/08/03 04:02:44;;;;;;;0.40;0.20;;;17.90;99.90;;;;;;5075729;28;20040;-77
2022/08/03 04:11:23;;;;;;;0.10;0.10;;;17.70;99.90;;;;;;5069024;28;20044;-76
2022/08/03 04:13:50;;;;;;;0.63;0.30;;;17.80;99.90;;;;;;5068397;28;20120;-76
2022/08/03 04:16:20;;;;;;;0.20;0.10;;;17.60;99.90;;;;;;5052267;28;20560;-77
2022/08/03 04:18:51;;;;;;;0.38;0.20;;;17.80;99.90;;;;;;5069828;28;20117;-76
2022/08/03 04:21:19;;;;;;;0.57;0.20;;;17.60;99.90;;;;;;5072518;28;20036;-76
2022/08/03 04:23:48;;;;;;;0.17;0.17;;;17.60;99.90;;;;;;5056750;28;20042;-76
2022/08/03 04:26:17;;;;;;;0.13;0.10;;;17.50;99.90;;;;;;5088998;28;20440;-76
2022/08/03 04:28:45;;;;;;;0.50;0.10;;;17.50;99.90;;;;;;5081397;28;20043;-76
2022/08/03 04:31:13;;;;;;;0.30;0.20;;;17.80;99.90;;;;;;5072993;28;20101;-76
2022/08/03 04:33:41;;;;;;;0.20;0.20;;;17.80;99.90;;;;;;5075036;28;20076;-76
2022/08/03 04:36:09;;;;;;;0.52;0.10;;;17.50;99.90;;;;;;5056812;28;20507;-76
2022/08/03 04:38:43;;;;;;;0.20;0.20;;;17.80;99.90;;;;;;5082394;28;20043;-77
2022/08/03 04:41:10;;;;;;;0.32;0.30;;;17.80;99.90;;;;;;5073061;28;20051;-76
2022/08/03 04:43:40;;;;;;;0.45;0.20;;;17.90;99.90;;;;;;5062354;28;20036;-76
2022/08/03 04:46:06;;;;;;;0.50;0.30;;;17.60;99.90;;;;;;5059905;28;20048;-75
2022/08/03 04:48:33;;;;;;;;;;;17.60;99.90;;;;;;5076497;28;20128;-75
2022/08/03 04:50:59;;;;;;;0.40;0.20;;;17.90;99.90;;;;;;5072759;28;19920;-75
2022/08/03 04:53:25;;;;;;;0.65;0.20;;;18.00;99.90;;;;;;5073278;28;20479;-76
2022/08/03 04:55:51;;;;;;;0.73;0.20;;;17.80;99.90;;;;;;5072724;28;20037;-75
2022/08/03 04:58:17;;;;;;;0.43;0.20;;;18.00;99.90;;;;;;5057822;28;20041;-75
2022/08/03 05:00:44;;;;;;;0.85;0.30;;;17.90;99.90;;;;;;5055440;28;20036;-75
2022/08/03 05:03:09;;;;;;;2.67;0.85;;;18.20;99.90;;;;;;5066736;28;20062;-75
2022/08/03 05:05:35;;;;;;;;;;;18.20;99.90;;;;;;5072742;28;20048;-75
2022/08/03 05:08:01;;;;;;;1.45;0.30;;;18.20;99.90;;;;;;5059824;28;19932;-75
2022/08/03 05:10:27;;;;;;;0.55;0.30;;;18.20;99.90;;;;;;5054815;28;20045;-75
2022/08/03 05:12:52;;;;;;;0.25;0.20;;;18.30;99.90;;;;;;5074049;28;20124;-75
2022/08/03 05:15:18;;;;;;;0.43;0.20;;;18.10;99.90;;;;;;5076777;28;20044;-75
2022/08/03 05:17:44;;;;;;;;;;;18.40;99.90;;;;;;5072319;28;20032;-75
2022/08/03 05:20:10;;;;;;;0.73;0.32;;;18.10;99.90;;;;;;5074053;28;19917;-74
2022/08/03 05:22:36;;;;;;;2.60;0.50;;;18.20;99.90;;;;;;5078255;28;20902;-74
2022/08/03 05:25:02;;;;;;;;;;;18.20;99.90;;;;;;5056173;28;20131;-74
2022/08/03 05:27:27;;;;;;;0.32;0.32;;;18.50;99.90;;;;;;5055634;28;19927;-75
2022/08/03 05:29:53;;;;;;;;;;;18.50;99.90;;;;;;5075310;28;20074;-75
2022/08/03 05:32:18;;;;;;;1.80;0.50;;;18.50;99.90;;;;;;5074069;28;19916;-75
2022/08/03 05:34:44;;;;;;;;;;;18.60;99.90;;;;;;5082086;28;20043;-75
2022/08/03 05:37:10;;;;;;;1.85;0.50;;;18.80;99.90;;;;;;5074266;28;19920;-75
2022/08/03 05:39:37;;;;;;;1.30;0.52;;;18.80;99.90;;;;;;5080574;28;20123;-75
2022/08/03 05:42:03;;;;;;;1.38;0.60;;;18.50;99.90;;;;;;5077765;28;20051;-75
2022/08/03 05:44:29;;;;;;;;;;;18.60;99.90;;;;;;5072206;28;20032;-75
2022/08/03 05:46:55;;;;;;;1.48;0.50;;;19.00;99.90;;;;;;5088951;28;20363;-75
2022/08/03 05:49:20;;;;;;;;;;;18.70;99.90;;;;;;5078888;28;20048;-75
2022/08/03 05:51:46;;;;;;;1.13;0.50;;;19.00;99.90;;;;;;5078503;28;20386;-75
2022/08/03 05:54:12;;;;;;;1.58;0.80;;;19.00;99.90;;;;;;5077862;28;20061;-76
2022/08/03 05:56:39;;;;;;;;;;;18.90;99.90;;;;;;5072135;28;20056;-74
2022/08/03 05:59:06;;;;;;;2.38;0.70;;;18.90;99.90;;;;;;5055203;28;19916;-75
2022/08/03 06:01:31;;;;;;;1.50;0.60;;;19.20;99.90;;;;;;5054897;28;20048;-76
2022/08/03 06:03:57;;;;;;;;;;;19.30;99.90;;;;;;5071747;28;20043;-74
2022/08/03 06:06:23;;;;;;;1.80;0.50;;;19.30;99.90;;;;;;5076249;28;20473;-75
2022/08/03 06:08:49;;;;;;;;;;;19.30;99.90;;;;;;5080311;28;20523;-75
2022/08/03 06:11:15;;;;;;;0.85;0.50;;;19.30;99.90;;;;;;5077361;28;19924;-75
2022/08/03 06:13:41;;;;;;;1.38;0.50;;;19.60;99.90;;;;;;5075897;28;20080;-75
2022/08/03 06:16:07;;;;;;;;;;;19.70;99.90;;;;;;5074323;28;20052;-75
2022/08/03 06:18:32;;;;;;;2.53;0.80;;;19.70;99.90;;;;;;5077764;28;20502;-75
2022/08/03 06:20:58;;;;;;;;;;;19.60;99.90;;;;;;5082048;28;20040;-75
2022/08/03 06:23:24;;;;;;;1.85;0.70;;;19.80;99.90;;;;;;5063013;28;19944;-75
2022/08/03 06:25:49;;;;;;;;;;;20.00;99.90;;;;;;5080420;28;20130;-75
2022/08/03 06:28:17;;;;;;;1.73;0.68;;;19.90;99.90;;;;;;5074233;28;20028;-75
2022/08/03 06:30:43;;;;;;;1.98;0.80;;;20.20;99.90;;;;;;5056827;28;20170;-75
2022/08/03 06:33:09;;;;;;;1.02;0.60;;;20.50;99.90;;;;;;5058006;28;20048;-75
2022/08/03 06:35:34;;;;;;;;;;;20.60;99.90;;;;;;5078603;28;20032;-75
2022/08/03 06:38:00;;;;;;;3.55;1.10;;;20.90;99.90;;;;;;5072897;28;20337;-75
2022/08/03 06:40:30;;;;;;;;;;;20.80;99.90;;;;;;5069960;28;20083;-75
2022/08/03 06:43:01;;;;;;;2.75;0.90;;;21.00;99.90;;;;;;5061643;28;19920;-75
2022/08/03 06:45:30;;;;;;;2.28;1.00;;;21.00;99.90;;;;;;5076876;28;20074;-75
2022/08/03 06:48:04;;;;;;;3.10;0.75;;;21.00;99.90;;;;;;5071373;28;20134;-75
2022/08/03 06:50:30;;;;;;;2.63;0.80;;;21.10;99.90;;;;;;5086434;28;20108;-75
2022/08/03 06:52:56;;;;;;;2.88;0.90;;;21.20;99.90;;;;;;5071218;28;20056;-76
2022/08/03 06:55:21;;;;;;;;;;;21.10;99.90;;;;;;5070927;28;20051;-75
2022/08/03 06:57:47;;;;;;;2.83;1.13;;;21.10;99.90;;;;;;5076988;28;19915;-75
2022/08/03 07:00:13;;;;;;;2.15;0.90;;;21.10;99.90;;;;;;5055481;28;20032;-75
2022/08/03 07:02:39;;;;;;;2.55;1.02;;;21.20;99.90;;;;;;5062121;28;20040;-75
2022/08/03 07:05:06;;;;;;;2.22;1.00;;;21.40;99.90;;;;;;5061143;28;20064;-75
2022/08/03 07:07:32;;;;;;;2.50;1.17;;;21.40;99.90;;;;;;5075668;28;20077;-75
2022/08/03 07:09:57;;;;;;;2.78;1.17;;;21.50;99.90;;;;;;5083026;28;20044;-75
2022/08/03 07:12:24;;;;;;;2.13;0.90;;;21.60;99.90;;;;;;5078133;28;20125;-75
2022/08/03 07:14:50;;;;;;;2.00;0.90;;;21.60;99.90;;;;;;5074704;28;20041;-75
2022/08/03 07:17:16;;;;;;;3.20;0.95;;;21.60;99.90;;;;;;5076359;28;20047;-75
2022/08/03 07:19:42;;;;;;;;;;;21.80;99.90;;;;;;5058746;28;20476;-75
2022/08/03 07:22:08;;;;;;;2.03;0.70;;;22.00;99.90;;;;;;5075132;28;19999;-75
2022/08/03 07:24:34;;;;;;;2.42;1.00;;;22.10;99.90;;;;;;5080957;28;20107;-75
2022/08/03 07:27:00;;;;;;;1.83;0.63;;;22.20;99.90;;;;;;5078255;28;20044;-75
2022/08/03 07:29:25;;;;;;;3.40;1.17;;;22.40;99.90;;;;;;5078339;28;20040;-75
2022/08/03 07:31:51;;;;;;;4.30;1.20;;;22.50;99.90;;;;;;5076641;28;20074;-75
2022/08/03 07:34:17;;;;;;;2.15;0.70;;;22.60;99.90;;;;;;5071299;28;20059;-75
2022/08/03 07:36:42;;;;;;;1.23;0.60;;;22.90;99.90;;;;;;5081035;28;20037;-75
2022/08/03 07:39:08;;;;;;;2.33;1.00;;;22.90;99.90;;;;;;5073709;28;20136;-75
2022/08/03 07:41:34;;;;;;;2.47;0.80;;;22.70;99.90;;;;;;5077732;28;20040;-75
2022/08/03 07:43:59;;;;;;;2.47;1.13;;;22.80;99.90;;;;;;5077065;28;20118;-75
2022/08/03 07:46:25;;;;;;;3.40;0.90;;;22.90;99.90;;;;;;5059618;28;20051;-75
2022/08/03 07:48:51;;;;;;;1.77;0.73;;;23.00;99.90;;;;;;5073505;28;20501;-75
2022/08/03 07:51:17;;;;;;;1.85;0.90;;;23.20;99.90;;;;;;5087789;28;20060;-75
2022/08/03 07:53:43;;;;;;;3.45;1.00;;;23.20;99.90;;;;;;5063270;28;20056;-75
2022/08/03 07:56:08;;;;;;;3.05;1.00;;;23.30;99.90;;;;;;5079919;28;20084;-75
2022/08/03 07:58:35;;;;;;;2.13;1.05;;;23.30;99.90;;;;;;5077985;28;20064;-75
2022/08/03 08:01:00;;;;;;;2.80;0.88;;;23.40;99.90;;;;;;5079750;28;20160;-75
2022/08/03 08:03:26;;;;;;;2.63;0.80;;;23.50;99.90;;;;;;5079653;28;20595;-75
2022/08/03 08:05:52;;;;;;;3.85;1.20;;;23.50;99.90;;;;;;5060002;28;20040;-74
2022/08/03 08:08:19;;;;;;;3.58;1.13;;;23.50;99.90;;;;;;5057854;28;20044;-74
2022/08/03 08:10:45;;;;;;;2.85;1.20;;;23.60;99.90;;;;;;5071194;28;20158;-74
2022/08/03 08:13:11;;;;;;;2.22;0.90;;;23.70;99.90;;;;;;5079643;28;20059;-74
2022/08/03 08:15:36;;;;;;;1.98;1.08;;;24.00;99.90;;;;;;5058222;28;20032;-74
2022/08/03 08:18:03;;;;;;;3.17;0.98;;;24.10;99.90;;;;;;5081169;28;20092;-74
2022/08/03 08:20:34;;;;;;;3.63;1.05;;;24.20;99.90;;;;;;5063820;28;20044;-74
2022/08/03 08:23:01;;;;;;;4.45;1.30;;;24.30;99.90;;;;;;5073868;28;20066;-74
2022/08/03 08:25:28;;;;;;;3.97;1.55;;;24.40;99.90;;;;;;5068917;28;20392;-74
2022/08/03 08:27:54;;;;;;;2.90;1.20;;;24.50;99.90;;;;;;5052660;28;20383;-74
2022/08/03 08:30:22;;;;;;;1.25;0.85;;;24.70;99.90;;;;;;5068959;28;20036;-75
2022/08/03 08:32:49;;;;;;;3.28;1.10;;;25.10;99.90;;;;;;5071962;28;20155;-74
2022/08/03 08:35:16;;;;;;;3.22;1.00;;;25.10;99.90;;;;;;5076513;28;20093;-74
2022/08/03 08:37:42;;;;;;;3.03;1.00;;;25.40;99.90;;;;;;5059675;28;20056;-74
2022/08/03 08:40:09;;;;;;;2.08;1.15;;;25.40;99.90;;;;;;5071313;28;20036;-74
2022/08/03 08:42:37;;;;;;;1.50;0.70;;;25.40;99.90;;;;;;5071600;28;20049;-75
2022/08/03 08:45:05;;;;;;;3.63;0.98;;;25.70;99.90;;;;;;5051152;28;20045;-74
2022/08/03 08:47:32;;;;;;;1.25;0.60;;;25.60;99.90;;;;;;5084728;28;20518;-75
2022/08/03 08:49:59;;;;;;;2.45;0.90;;;25.80;99.90;;;;;;5063900;28;20032;-75
2022/08/03 08:52:27;;;;;;;2.40;1.05;;;26.00;99.90;;;;;;5070281;28;20143;-75
2022/08/03 08:55:04;;;;;;;3.50;0.90;;;26.10;99.90;;;;;;5052198;28;20049;-74
2022/08/03 08:57:34;;;;;;;1.58;0.90;;;26.00;99.90;;;;;;5065046;28;20044;-74
2022/08/03 09:00:01;;;;;;;2.75;1.00;;;25.70;99.90;;;;;;5070257;28;20049;-74
2022/08/03 09:02:30;;;;;;;2.30;0.90;;;25.40;99.90;;;;;;5072020;28;20036;-74
2022/08/03 09:04:57;;;;;;;1.23;0.70;;;25.40;99.90;;;;;;5070287;28;20512;-74
2022/08/03 09:07:23;;;;;;;3.10;1.15;;;25.60;99.90;;;;;;5071090;28;20090;-74
2022/08/03 09:09:49;;;;;;;3.08;1.00;;;25.70;99.90;;;;;;5081129;28;20449;-74
2022/08/03 09:12:14;;;;;;;1.73;0.90;;;25.70;99.90;;;;;;5070699;28;20115;-74
2022/08/03 09:14:40;;;;;;;1.63;0.60;;;25.70;99.90;;;;;;5080938;28;20041;-74
2022/08/03 09:17:06;;;;;;;1.95;1.00;;;25.80;99.90;;;;;;5073439;28;20132;-74
2022/08/03 09:19:34;;;;;;;3.47;1.20;;;25.90;99.90;;;;;;5058633;28;20032;-74
2022/08/03 09:22:07;;;;;;;2.35;1.02;;;25.90;99.90;;;;;;5055661;28;20032;-74
2022/08/03 09:24:33;;;;;;;3.28;1.10;;;26.10;99.90;;;;;;5072441;28;20048;-75
2022/08/03 09:26:58;;;;;;;2.95;1.00;;;26.40;99.90;;;;;;5066463;28;20047;-75
2022/08/03 09:29:24;;;;;;;3.10;1.20;;;26.50;99.90;;;;;;5066638;28;20127;-74
2022/08/03 09:32:02;;;;;;;2.53;1.30;;;26.70;99.90;;;;;;5079361;28;20048;-75
2022/08/03 09:34:28;;;;;;;2.47;1.10;;;26.70;99.90;;;;;;5071467;28;20049;-74
2022/08/03 09:36:55;;;;;;;3.00;1.30;;;26.70;99.90;;;;;;5074312;28;20154;-75
2022/08/03 09:39:28;;;;;;;3.47;1.25;;;26.70;99.90;;;;;;5073548;28;20056;-75
2022/08/03 09:42:05;;;;;;;2.15;0.98;;;26.70;99.90;;;;;;5080750;28;20394;-75
2022/08/03 09:44:41;;;;;;;1.85;0.95;;;26.40;99.90;;;;;;5081681;28;20444;-75
2022/08/03 09:47:10;;;;;;;3.72;1.30;;;26.60;99.90;;;;;;5081074;28;20036;-74
2022/08/03 09:49:37;;;;;;;2.83;1.20;;;26.80;99.90;;;;;;5082085;28;20119;-74
2022/08/03 09:52:17;;;;;;;3.35;1.10;;;26.70;99.90;;;;;;5073613;28;20056;-74
2022/08/03 09:54:49;;;;;;;3.63;1.00;;;26.80;99.90;;;;;;5079229;28;20048;-74
2022/08/03 09:57:26;;;;;;;2.53;1.35;;;26.90;99.90;;;;;;5054798;28;20496;-74
2022/08/03 10:00:04;;;;;;;2.00;1.00;;;27.00;99.90;;;;;;5075969;28;20036;-74
2022/08/03 10:02:29;;;;;;;1.67;1.00;;;27.00;99.90;;;;;;5083951;28;20040;-74
2022/08/03 10:04:55;;;;;;;1.90;0.77;;;27.20;99.90;;;;;;5072981;28;20043;-74
2022/08/03 10:07:23;;;;;;;1.77;0.80;;;27.50;99.90;;;;;;5082803;28;20040;-74
2022/08/03 10:09:56;;;;;;;2.35;1.15;;;27.70;99.90;;;;;;5079284;28;20081;-74
2022/08/03 10:12:22;;;;;;;3.83;1.45;;;27.50;99.90;;;;;;5054843;28;20040;-74
2022/08/03 10:14:48;;;;;;;2.15;1.00;;;27.00;99.90;;;;;;5063662;28;20455;-74
2022/08/03 10:17:14;;;;;;;2.00;1.00;;;27.10;99.90;;;;;;5079294;28;20123;-74
2022/08/03 10:19:40;;;;;;;3.15;1.10;;;27.30;99.90;;;;;;5043025;28;20056;-75
2022/08/03 10:22:23;;;;;;;2.20;1.00;;;27.10;99.90;;;;;;5074478;28;20055;-75
2022/08/03 10:24:58;;;;;;;2.63;1.25;;;27.30;99.90;;;;;;5085781;28;20039;-75
2022/08/03 10:27:25;;;;;;;2.53;1.00;;;27.70;99.90;;;;;;5074654;28;20040;-75
2022/08/03 10:29:54;;;;;;;2.42;1.20;;;27.80;99.90;;;;;;5074674;28;20048;-75
2022/08/03 10:32:31;;;;;;;3.20;1.20;;;28.00;99.90;;;;;;5062843;28;20036;-75
2022/08/03 10:35:04;;;;;;;2.78;1.15;;;27.90;99.90;;;;;;5076608;28;20040;-75
2022/08/03 10:37:36;;;;;;;2.88;1.13;;;27.90;99.90;;;;;;5068998;28;20079;-75
2022/08/03 10:40:02;;;;;;;4.93;1.27;;;28.10;99.90;;;;;;5072315;28;20430;-75
2022/08/03 10:42:30;;;;;;;2.55;1.10;;;27.90;99.90;;;;;;5077979;28;20040;-75
2022/08/03 10:45:05;;;;;;;3.88;1.58;;;28.00;99.90;;;;;;5069114;28;20047;-75
2022/08/03 10:47:32;;;;;;;3.27;1.40;;;28.00;99.90;;;;;;5074874;28;20117;-75
2022/08/03 10:49:58;;;;;;;2.83;1.25;;;28.20;99.90;;;;;;5057764;28;20116;-75
2022/08/03 10:52:24;;;;;;;3.08;1.08;;;28.50;99.90;;;;;;5062863;28;20048;-75
2022/08/03 10:57:47;;;;;;;3.42;1.42;;;28.50;99.90;;;;;;5063133;28;20051;-75
2022/08/03 11:00:18;;;;;;;4.68;1.90;;;28.20;99.90;;;;;;5074112;28;20111;-75
2022/08/03 11:03:05;;;;;;;4.40;1.77;;;28.10;99.90;;;;;;5079046;28;20115;-75
2022/08/03 11:05:45;;;;;;;3.42;1.45;;;28.00;99.90;;;;;;5084363;28;20047;-75
2022/08/03 11:08:26;;;;;;;3.90;1.30;;;28.30;99.90;;;;;;5071112;28;20141;-75
2022/08/03 11:10:59;;;;;;;4.03;1.40;;;28.30;99.90;;;;;;5055041;28;20502;-75
2022/08/03 11:13:27;;;;;;;5.30;1.70;;;28.30;99.90;;;;;;5055493;28;20040;-75
2022/08/03 11:15:56;;;;;;;4.35;1.58;;;28.40;99.30;;;;;;5078778;28;20201;-75
2022/08/03 11:18:23;;;;;;;4.82;1.58;;;28.40;99.90;;;;;;5069913;28;20036;-75
2022/08/03 11:20:52;;;;;;;3.47;1.33;;;28.60;99.90;;;;;;5070069;28;20053;-75
2022/08/03 11:23:40;;;;;;;4.80;1.58;;;28.50;99.80;;;;;;5069897;28;20048;-75
2022/08/03 11:26:13;;;;;;;6.78;1.75;;;28.70;99.80;;;;;;5075502;28;20496;-75
2022/08/03 11:28:41;;;;;;;6.53;1.80;;;28.80;99.10;;;;;;5078941;28;20119;-75
2022/08/03 11:31:22;;;;;;;4.57;1.55;;;28.80;98.80;;;;;;5071399;28;20044;-75
2022/08/03 11:34:10;;;;;;;3.58;1.63;;;29.10;99.00;;;;;;5055662;28;20039;-75
2022/08/03 11:37:13;;;;;;;3.67;1.70;;;29.00;98.40;;;;;;5068899;28;20041;-75
2022/08/03 11:39:44;;;;;;;4.03;1.30;;;29.00;99.10;;;;;;5065110;28;20036;-75
2022/08/03 11:42:34;;;;;;;3.85;1.75;;;29.00;99.50;;;;;;5074500;28;20044;-75
2022/08/03 11:45:00;;;;;;;3.97;1.67;;;28.80;99.10;;;;;;5071014;28;20518;-75
2022/08/03 11:47:28;;;;;;;4.63;1.75;;;29.00;99.30;;;;;;5067760;28;20052;-75
2022/08/03 11:49:57;;;;;;;4.22;1.73;;;28.80;99.00;;;;;;5057372;28;20126;-75
2022/08/03 11:52:24;;;;;;;3.85;1.30;;;29.20;99.60;;;;;;5073400;28;20153;-75
2022/08/03 11:54:51;;;;;;;3.75;1.80;;;29.50;98.90;;;;;;5073699;28;20052;-75
2022/08/03 11:57:34;;;;;;;5.93;2.08;;;29.50;97.60;;;;;;5082832;28;20036;-75
2022/08/03 11:59:59;;;;;;;4.22;1.70;;;29.00;98.10;;;;;;5071057;28;20079;-75
2022/08/03 12:02:25;;;;;;;5.35;1.65;;;29.30;98.70;;;;;;5074646;28;20121;-75
2022/08/03 12:04:57;;;;;;;3.25;1.40;;;29.50;98.40;;;;;;5074682;28;20051;-75
2022/08/03 12:07:23;;;;;;;2.67;1.40;;;29.50;98.20;;;;;;5072689;28;20075;-75
2022/08/03 12:10:11;;;;;;;3.53;1.30;;;29.80;98.30;;;;;;5077509;28;20515;-75
2022/08/03 12:12:37;;;;;;;4.03;1.65;;;30.10;98.20;;;;;;5063779;28;20108;-75
2022/08/03 12:15:04;;;;;;;4.93;1.70;;;29.80;97.40;;;;;;5070890;28;20120;-75
2022/08/03 12:17:34;;;;;;;5.80;1.75;;;29.50;97.90;;;;;;5080166;28;20048;-75
2022/08/03 12:20:00;;;;;;;4.75;1.80;;;29.40;97.60;;;;;;5083269;28;20471;-75
2022/08/03 12:22:37;;;;;;;4.55;1.83;;;29.50;98.00;;;;;;5069142;28;20032;-75
2022/08/03 12:25:04;;;;;;;3.88;1.50;;;29.40;97.70;;;;;;5069214;28;20036;-75
2022/08/03 12:27:30;;;;;;;3.78;1.40;;;29.50;97.90;;;;;;5074521;28;20438;-75
2022/08/03 12:29:57;;;;;;;4.15;1.70;;;29.50;97.80;;;;;;5076711;28;20518;-75
2022/08/03 12:32:24;;;;;;;4.07;1.40;;;29.50;97.80;;;;;;5072549;28;20032;-75
2022/08/03 12:34:50;;;;;;;5.18;1.83;;;29.70;97.70;;;;;;5067928;28;20028;-75
2022/08/03 12:37:20;;;;;;;7.05;2.03;;;29.80;97.20;;;;;;5071137;28;20356;-75
2022/08/03 12:39:51;;;;;;;4.57;1.55;;;29.70;97.10;;;;;;5081640;28;20041;-75
2022/08/03 12:42:17;;;;;;;4.28;1.65;;;29.80;97.30;;;;;;5068288;28;20034;-75
2022/08/03 12:44:44;;;;;;;2.42;1.20;;;29.60;97.00;;;;;;5074040;28;20048;-75
2022/08/03 12:47:11;;;;;;;6.47;1.90;;;29.80;97.30;;;;;;5073694;28;20551;-75
2022/08/03 12:49:52;;;;;;;4.90;1.83;;;29.80;97.10;;;;;;5068605;28;20047;-75
2022/08/03 12:52:20;;;;;;;7.78;2.00;;;29.60;96.90;;;;;;5056946;28;20066;-75
2022/08/03 12:54:57;;;;;;;5.10;2.13;;;29.40;96.40;;;;;;5081427;28;20048;-75
2022/08/03 12:57:23;;;;;;;8.98;2.10;;;29.30;96.70;;;;;;5081591;28;20032;-75
2022/08/03 12:59:49;;;;;;;4.55;1.60;;;29.00;96.90;;;;;;5056671;28;20464;-75
2022/08/03 13:02:20;;;;;;;7.07;2.10;;;29.20;97.50;;;;;;5074669;28;20043;-75
2022/08/03 13:04:46;;;;;;;4.68;2.03;;;29.10;96.70;;;;;;5075060;28;20484;-75
2022/08/03 13:07:13;;;;;;;4.05;1.80;;;28.90;96.70;;;;;;5088929;28;20122;-75
2022/08/03 13:09:48;;;;;;;4.47;1.67;;;29.10;97.20;;;;;;5083578;28;20059;-75
2022/08/03 13:12:16;;;;;;;4.10;1.80;;;29.30;96.90;;;;;;5075084;28;20041;-75